Time;durP1;ratioP1;P1;durP2;ratioP2;P2;SDS_P1;SDS_P2;PMS_P1;PMS_P2;Temp;Humidity;BMP_temperature;BMP_pressure;BME280_temperature;BME280_humidity;BME280_pressure;Samples;Min_cycle;Max_cycle;Signal;HPM_P1;HPM_P2
2021/12/01 00:00:19;;;;;;;;;11.67;9.00;;;;;9.47;71.73;100696.88;5077869;28;45367;-54
2021/12/01 00:02:45;;;;;;;;;7.00;7.00;;;;;9.48;72.46;100709.16;5076487;28;45524;-55
2021/12/01 00:05:11;;;;;;;;;7.33;6.00;;;;;9.43;72.61;100695.47;5077833;28;45373;-51
2021/12/01 00:07:37;;;;;;;;;12.00;10.00;;;;;9.52;71.48;100699.94;5077124;28;47391;-55
2021/12/01 00:10:06;;;;;;;;;9.00;7.67;;;;;9.52;71.97;100699.09;5077168;28;45480;-55
2021/12/01 00:12:32;;;;;;;;;9.33;9.33;;;;;9.53;71.85;100701.63;5076209;28;45286;-57
2021/12/01 00:15:00;;;;;;;;;10.00;7.00;;;;;9.48;71.46;100674.63;5077658;28;45549;-55
2021/12/01 00:17:25;;;;;;;;;10.00;10.00;;;;;9.53;72.23;100683.03;5077264;28;47243;-55
2021/12/01 00:19:51;;;;;;;;;13.00;10.33;;;;;9.54;72.20;100663.47;5059021;28;45247;-56
2021/12/01 00:22:17;;;;;;;;;11.33;9.67;;;;;9.47;72.20;100649.91;5077560;28;45424;-55
2021/12/01 00:24:42;;;;;;;;;8.33;5.00;;;;;9.56;72.32;100656.19;5077452;28;45532;-55
2021/12/01 00:27:08;;;;;;;;;10.33;8.67;;;;;9.56;72.35;100648.22;5077195;28;45998;-52
2021/12/01 00:29:33;;;;;;;;;9.00;9.00;;;;;9.55;72.61;100633.28;5077198;28;45371;-55
2021/12/01 00:31:59;;;;;;;;;9.00;7.00;;;;;9.56;71.97;100616.34;5077433;28;45498;-56
2021/12/01 00:34:25;;;;;;;;;14.00;10.00;;;;;9.57;71.54;100610.09;5077547;28;45627;-53
2021/12/01 00:36:51;;;;;;;;;8.33;7.00;;;;;9.56;72.26;100603.06;5077324;28;47162;-55
2021/12/01 00:39:16;;;;;;;;;10.33;9.67;;;;;9.56;71.99;100581.81;5076921;28;45365;-53
2021/12/01 00:41:42;;;;;;;;;15.67;10.33;;;;;9.55;72.09;100587.28;5077289;28;45476;-51
2021/12/01 00:44:09;;;;;;;;;9.67;7.67;;;;;9.57;72.24;100561.44;5077464;28;45343;-51
2021/12/01 00:46:41;;;;;;;;;6.67;5.67;;;;;9.57;72.21;100556.97;5077124;28;46541;-50
2021/12/01 00:49:07;;;;;;;;;9.33;7.00;;;;;9.57;72.33;100551.66;5077181;28;45428;-50
2021/12/01 00:51:32;;;;;;;;;10.00;7.00;;;;;9.58;71.54;100548.00;5077189;28;45383;-52
2021/12/01 00:53:58;;;;;;;;;9.33;6.33;;;;;9.58;71.92;100534.72;5077168;28;45409;-53
2021/12/01 00:56:23;;;;;;;;;9.00;6.00;;;;;9.58;71.94;100531.25;5077271;28;46174;-53
2021/12/01 00:58:50;;;;;;;;;7.67;6.33;;;;;9.58;72.05;100529.41;5076902;28;45345;-51
2021/12/01 01:01:15;;;;;;;;;11.67;4.33;;;;;9.55;72.04;100503.16;5080598;28;45390;-51
2021/12/01 01:03:41;;;;;;;;;11.67;7.00;;;;;9.58;71.81;100497.56;5081607;28;45392;-51
2021/12/01 01:06:06;;;;;;;;;9.00;5.00;;;;;9.59;71.64;100507.19;5080998;28;45967;-51
2021/12/01 01:08:32;;;;;;;;;7.33;6.67;;;;;9.60;71.59;100510.69;5081421;28;45315;-51
2021/12/01 01:16:22;;;;;;;;;9.33;6.00;;;;;9.60;72.35;100487.59;5080391;28;45195;-53
2021/12/01 01:18:53;;;;;;;;;14.67;6.33;;;;;9.62;71.71;100492.78;5080276;28;45249;-50
2021/12/01 01:21:18;;;;;;;;;10.33;6.67;;;;;9.62;72.02;100485.66;5080418;28;45391;-52
2021/12/01 01:23:44;;;;;;;;;17.67;10.00;;;;;9.53;72.39;100459.16;5080344;28;45411;-49
2021/12/01 01:26:14;;;;;;;;;8.33;5.67;;;;;9.63;72.05;100468.72;5080330;28;47075;-52
2021/12/01 01:28:41;;;;;;;;;14.67;8.33;;;;;9.62;72.46;100471.53;5080325;28;45240;-51
2021/12/01 01:31:06;;;;;;;;;8.00;6.33;;;;;9.60;71.68;100455.75;5080350;28;45296;-52
2021/12/01 01:33:31;;;;;;;;;10.67;10.67;;;;;9.59;71.74;100458.56;5080505;28;45167;-52
2021/12/01 01:35:57;;;;;;;;;11.00;7.00;;;;;9.57;72.64;100458.72;5080043;28;46988;-55
2021/12/01 01:38:23;;;;;;;;;10.00;7.00;;;;;9.47;72.31;100450.75;5080461;28;45418;-51
2021/12/01 01:40:48;;;;;;;;;9.00;6.33;;;;;9.59;72.51;100467.34;5081034;28;45402;-50
2021/12/01 01:43:14;;;;;;;;;10.67;7.00;;;;;9.60;72.22;100458.41;5080775;28;45273;-52
2021/12/01 01:45:40;;;;;;;;;9.67;9.33;;;;;9.58;72.66;100448.91;5080658;28;45411;-50
2021/12/01 01:48:11;;;;;;;;;10.00;7.67;;;;;9.59;72.05;100454.06;5080330;28;45445;-53
2021/12/01 01:50:40;;;;;;;;;11.67;9.67;;;;;9.58;72.45;100443.59;5080961;28;45257;-55
2021/12/01 01:53:13;;;;;;;;;11.00;9.67;;;;;9.58;72.83;100436.47;5081522;28;45312;-54
2021/12/01 01:55:42;;;;;;;;;10.33;9.33;;;;;9.60;72.11;100439.81;5079596;28;45971;-52
2021/12/01 01:58:08;;;;;;;;;10.00;6.00;;;;;9.59;72.68;100438.13;5079806;28;45360;-55
2021/12/01 02:00:43;;;;;;;;;13.00;7.00;;;;;9.60;72.43;100437.16;5079729;28;45332;-54
2021/12/01 02:03:11;;;;;;;;;11.67;9.00;;;;;9.61;72.32;100430.03;5079937;28;45227;-56
2021/12/01 02:05:38;;;;;;;;;7.33;5.67;;;;;9.61;72.30;100448.63;5079508;28;45353;-53
2021/12/01 02:08:03;;;;;;;;;14.67;9.00;;;;;9.60;71.82;100431.00;5079461;28;45632;-51
2021/12/01 02:10:29;;;;;;;;;10.00;6.33;;;;;9.62;72.56;100426.41;5079464;28;45438;-53
2021/12/01 02:12:54;;;;;;;;;7.00;7.00;;;;;9.63;72.24;100425.41;5079117;28;45312;-49
2021/12/01 02:15:19;;;;;;;;;12.33;8.33;;;;;9.64;72.04;100416.44;5079373;28;47041;-48
2021/12/01 02:17:45;;;;;;;;;11.33;6.00;;;;;9.61;72.70;100409.63;5079473;28;45448;-54
2021/12/01 02:20:17;;;;;;;;;10.33;9.67;;;;;9.61;72.56;100409.63;5079608;28;45374;-52
2021/12/01 02:22:42;;;;;;;;;8.67;7.00;;;;;9.55;72.97;100396.09;5079596;28;45306;-55
2021/12/01 02:25:08;;;;;;;;;9.33;9.33;;;;;9.62;73.09;100389.22;5079059;28;46116;-52
2021/12/01 02:27:34;;;;;;;;;7.67;7.67;;;;;9.59;73.09;100390.34;5078806;28;45372;-54
2021/12/01 02:29:59;;;;;;;;;10.67;9.67;;;;;9.61;73.57;100375.09;5079409;28;45364;-52
2021/12/01 02:32:24;;;;;;;;;9.67;9.67;;;;;9.58;73.31;100370.09;5079661;28;45359;-53
2021/12/01 02:34:50;;;;;;;;;10.33;5.00;;;;;9.56;73.91;100374.69;5079123;28;45322;-56
2021/12/01 02:37:15;;;;;;;;;7.00;7.00;;;;;9.53;73.51;100356.44;5079135;28;45339;-56
2021/12/01 02:39:41;;;;;;;;;10.00;10.00;;;;;9.46;74.33;100345.56;5079200;28;45309;-57
2021/12/01 02:42:08;;;;;;;;;10.33;10.00;;;;;9.50;75.33;100340.78;5079250;28;45279;-53
2021/12/01 02:44:34;;;;;;;;;10.67;9.00;;;;;9.49;74.30;100349.75;5060778;28;45295;-55
2021/12/01 02:47:00;;;;;;;;;13.00;10.33;;;;;9.47;74.92;100351.69;5078906;28;45343;-55
2021/12/01 02:49:27;;;;;;;;;10.33;8.67;;;;;9.40;74.55;100324.94;5060761;28;45449;-54
2021/12/01 02:51:54;;;;;;;;;7.00;7.00;;;;;9.32;74.64;100297.47;5079339;28;45517;-53
2021/12/01 02:54:20;;;;;;;;;7.67;7.67;;;;;9.43;74.23;100315.81;5078683;28;45508;-52
2021/12/01 02:56:48;;;;;;;;;12.00;12.00;;;;;9.41;75.10;100300.03;5078879;28;45312;-56
2021/12/01 02:59:15;;;;;;;;;13.00;10.33;;;;;9.41;74.70;100296.56;5078909;28;45359;-57
2021/12/01 03:01:40;;;;;;;;;14.33;10.33;;;;;9.42;74.76;100287.59;5078992;28;45392;-55
2021/12/01 03:04:07;;;;;;;;;15.67;11.00;;;;;9.43;74.37;100268.03;5078844;28;45222;-55
2021/12/01 03:06:35;;;;;;;;;10.67;8.00;;;;;9.42;75.61;100269.84;5078899;28;45415;-54
2021/12/01 03:09:02;;;;;;;;;10.67;7.00;;;;;9.40;75.09;100249.75;5078831;28;45400;-52
2021/12/01 03:11:27;;;;;;;;;6.25;5.00;;;;;9.44;74.80;100241.34;5078752;28;45444;-56
2021/12/01 03:13:56;;;;;;;;;5.33;3.00;;;;;9.44;75.10;100235.19;5078476;28;45222;-55
2021/12/01 03:16:22;;;;;;;;;6.33;5.00;;;;;9.37;74.75;100204.94;5078571;28;45281;-55
2021/12/01 03:18:47;;;;;;;;;5.67;5.00;;;;;9.50;74.99;100210.69;5078584;28;45403;-53
2021/12/01 03:21:13;;;;;;;;;5.00;5.00;;;;;9.53;74.38;100212.22;5078690;28;45756;-50
2021/12/01 03:23:39;;;;;;;;;5.00;5.00;;;;;9.55;75.03;100204.91;5077436;28;46919;-52
2021/12/01 03:26:06;;;;;;;;;5.00;5.00;;;;;9.53;75.28;100202.41;5078332;28;45500;-51
2021/12/01 03:28:32;;;;;;;;;2.00;2.00;;;;;9.56;74.94;100202.09;5078429;28;45315;-53
2021/12/01 03:30:57;;;;;;;;;6.00;5.00;;;;;9.59;74.49;100206.28;5078557;28;45292;-55
2021/12/01 03:33:23;;;;;;;;;3.00;2.33;;;;;9.58;75.26;100197.47;5078239;28;46322;-50
2021/12/01 03:35:51;;;;;;;;;4.33;4.33;;;;;9.50;74.82;100177.00;5078303;28;45288;-56
2021/12/01 03:38:19;;;;;;;;;6.00;2.00;;;;;9.61;75.30;100178.59;5078433;28;45467;-56
2021/12/01 03:40:44;;;;;;;;;4.33;3.00;;;;;9.31;74.42;100118.75;5078355;28;45546;-55
2021/12/01 03:43:10;;;;;;;;;3.00;3.00;;;;;9.64;75.33;100172.13;5059453;28;45329;-52
2021/12/01 03:45:36;;;;;;;;;8.67;2.33;;;;;9.62;75.38;100163.50;5077983;28;45292;-54
2021/12/01 03:48:01;;;;;;;;;6.00;2.00;;;;;9.63;75.33;100147.38;5078374;28;45334;-56
2021/12/01 03:50:27;;;;;;;;;5.67;3.67;;;;;9.64;74.55;100143.75;5078316;28;45265;-55
2021/12/01 03:52:52;;;;;;;;;5.33;3.00;;;;;9.66;75.86;100144.44;5077914;28;46454;-54
2021/12/01 03:55:18;;;;;;;;;5.00;2.67;;;;;9.66;75.58;100125.00;5077809;28;45433;-53
2021/12/01 03:57:44;;;;;;;;;3.00;3.00;;;;;9.60;75.67;100123.78;5077999;28;45411;-55
2021/12/01 04:00:12;;;;;;;;;7.00;6.00;;;;;9.62;76.23;100121.84;5078146;28;45456;-53
2021/12/01 04:02:39;;;;;;;;;6.00;5.00;;;;;9.57;76.00;100116.16;5076671;28;45317;-54
2021/12/01 04:05:05;;;;;;;;;7.00;5.67;;;;;9.59;76.91;100106.19;5077839;28;45403;-56
2021/12/01 04:07:31;;;;;;;;;6.00;6.00;;;;;9.55;77.30;100099.53;5077278;28;45334;-54
2021/12/01 04:09:56;;;;;;;;;6.50;6.50;;;;;9.57;76.06;100086.94;5077725;28;45391;-54
2021/12/01 04:12:22;;;;;;;;;7.00;5.33;;;;;9.48;77.57;100083.41;5077665;28;45991;-54
2021/12/01 04:14:48;;;;;;;;;10.67;7.00;;;;;9.54;76.81;100063.34;5077479;28;45486;-52
2021/12/01 04:17:13;;;;;;;;;5.00;3.00;;;;;9.50;77.17;100056.69;5077732;28;45396;-54
2021/12/01 04:19:38;;;;;;;;;6.50;6.50;;;;;9.48;77.65;100030.31;5078010;28;45248;-54
2021/12/01 04:22:04;;;;;;;;;8.00;7.25;;;;;9.42;78.62;100030.09;5077425;28;45845;-52
2021/12/01 04:24:30;;;;;;;;;10.00;5.00;;;;;9.36;77.88;100012.97;5077586;28;45332;-56
2021/12/01 04:26:56;;;;;;;;;5.67;5.67;;;;;9.35;77.63;100013.94;5077490;28;45438;-56
2021/12/01 04:29:22;;;;;;;;;7.00;6.00;;;;;9.29;78.92;100017.25;5077599;28;45208;-54
2021/12/01 04:31:48;;;;;;;;;7.67;6.00;;;;;9.28;78.78;100006.78;5077313;28;46102;-53
2021/12/01 04:34:14;;;;;;;;;5.67;5.67;;;;;9.24;78.57;99993.00;5076780;28;45595;-56
2021/12/01 04:36:42;;;;;;;;;7.00;5.00;;;;;9.20;79.56;99995.13;5077221;28;45407;-54
2021/12/01 04:39:10;;;;;;;;;8.00;5.00;;;;;9.19;80.01;100009.41;5077593;28;45508;-53
2021/12/01 04:41:41;;;;;;;;;8.67;6.00;;;;;9.18;80.28;99997.09;5076712;28;46292;-57
2021/12/01 04:44:13;;;;;;;;;7.33;5.00;;;;;9.16;79.63;99983.16;5077051;28;45233;-51
2021/12/01 04:46:46;;;;;;;;;7.67;6.00;;;;;9.15;80.06;99973.53;5077397;28;45522;-57
2021/12/01 04:49:18;;;;;;;;;3.00;3.00;;;;;9.15;79.55;99981.50;5077407;28;45477;-54
2021/12/01 04:51:53;;;;;;;;;10.75;6.00;;;;;9.16;80.49;99971.72;5077001;28;45265;-53
2021/12/01 04:54:18;;;;;;;;;6.00;3.00;;;;;9.15;80.94;99970.88;5077176;28;45371;-53
2021/12/01 04:56:46;;;;;;;;;5.00;5.00;;;;;9.15;79.85;99960.28;5077171;28;45428;-57
2021/12/01 04:59:13;;;;;;;;;5.67;4.67;;;;;9.14;80.44;99961.28;5077539;28;45298;-54
2021/12/01 05:01:40;;;;;;;;;7.00;2.67;;;;;9.15;80.87;99944.34;5076872;28;45285;-55
2021/12/01 05:04:06;;;;;;;;;2.00;2.00;;;;;9.16;80.96;99935.41;5076892;28;45355;-52
2021/12/01 05:06:31;;;;;;;;;2.00;2.00;;;;;9.15;80.43;99928.44;5077201;28;45232;-53
2021/12/01 05:08:57;;;;;;;;;2.00;2.00;;;;;9.16;80.32;99930.09;5077436;28;45308;-49
2021/12/01 05:11:22;;;;;;;;;1.67;0.33;;;;;9.18;80.38;99933.41;5076672;28;45994;-51
2021/12/01 05:13:48;;;;;;;;;3.67;1.33;;;;;9.16;80.71;99906.22;5076695;28;45446;-52
2021/12/01 05:16:13;;;;;;;;;2.33;2.00;;;;;9.13;81.54;99919.78;5077038;28;45323;-53
2021/12/01 05:18:39;;;;;;;;;1.00;1.00;;;;;9.15;79.58;99899.25;5077399;28;45499;-52
2021/12/01 05:21:05;;;;;;;;;2.00;1.00;;;;;9.05;81.15;99874.63;5076512;28;45723;-53
2021/12/01 05:23:31;;;;;;;;;1.33;1.00;;;;;9.12;82.05;99896.91;5076913;28;45317;-50
2021/12/01 05:25:56;;;;;;;;;1.00;0.33;;;;;9.13;81.90;99887.13;5076675;28;45345;-52
2021/12/01 05:28:22;;;;;;;;;2.67;1.00;;;;;9.10;81.07;99887.41;5076894;28;45624;-51
2021/12/01 05:30:47;;;;;;;;;0.50;0.50;;;;;9.08;81.16;99887.59;5076693;28;47396;-52
2021/12/01 05:33:14;;;;;;;;;2.00;2.00;;;;;9.09;82.25;99870.69;5076581;28;45278;-53
2021/12/01 05:35:42;;;;;;;;;3.00;0.00;;;;;9.10;81.55;99871.50;5076710;28;45496;-50
2021/12/01 05:38:08;;;;;;;;;1.00;1.00;;;;;9.10;80.60;99872.34;5076873;28;45352;-52
2021/12/01 05:40:33;;;;;;;;;1.00;1.00;;;;;9.10;82.01;99867.06;5076234;28;46391;-48
2021/12/01 05:42:59;;;;;;;;;1.00;1.00;;;;;9.13;81.31;99869.38;5076293;28;45376;-51
2021/12/01 05:45:24;;;;;;;;;1.00;1.00;;;;;9.12;81.59;99867.72;5076741;28;45289;-50
2021/12/01 05:47:50;;;;;;;;;1.00;1.00;;;;;9.17;81.55;99861.94;5078372;28;45226;-52
2021/12/01 05:50:16;;;;;;;;;0.67;0.67;;;;;9.19;80.84;99852.81;5079883;28;46105;-52
2021/12/01 05:52:42;;;;;;;;;0.67;0.67;;;;;9.14;81.33;99851.63;5079947;28;45167;-51
2021/12/01 05:55:08;;;;;;;;;2.00;0.00;;;;;9.22;81.59;99839.22;5080241;28;45356;-51
2021/12/01 05:57:34;;;;;;;;;2.00;0.67;;;;;9.23;81.29;99848.88;5079793;28;45486;-53
2021/12/01 06:00:00;;;;;;;;;0.67;0.67;;;;;9.25;80.72;99836.25;5079831;28;46216;-52
2021/12/01 06:02:26;;;;;;;;;0.00;0.00;;;;;9.28;81.53;99840.41;5079808;28;45473;-51
2021/12/01 06:04:51;;;;;;;;;0.00;0.00;;;;;9.28;81.85;99827.16;5079876;28;45434;-50
2021/12/01 06:07:17;;;;;;;;;1.00;1.00;;;;;9.30;81.54;99837.59;5080023;28;45326;-48
2021/12/01 06:09:42;;;;;;;;;0.33;0.33;;;;;9.30;81.20;99825.16;5078607;28;45538;-50
2021/12/01 06:12:11;;;;;;;;;0.00;0.00;;;;;9.32;81.42;99817.06;5079343;28;45330;-52
2021/12/01 06:14:38;;;;;;;;;0.67;0.33;;;;;9.34;81.21;99804.44;5079911;28;45297;-52
2021/12/01 06:17:03;;;;;;;;;2.00;1.00;;;;;9.36;81.66;99815.75;5079673;28;45441;-52
2021/12/01 06:19:29;;;;;;;;;2.00;2.00;;;;;9.38;82.12;99813.75;5079634;28;47090;-51
2021/12/01 06:21:54;;;;;;;;;1.00;1.00;;;;;9.32;82.35;99785.19;5079372;28;45463;-48
2021/12/01 06:24:20;;;;;;;;;2.00;1.00;;;;;9.40;81.92;99795.84;5079749;28;45326;-51
2021/12/01 06:26:45;;;;;;;;;1.00;1.00;;;;;9.36;80.92;99779.41;5079813;28;45730;-49
2021/12/01 06:29:10;;;;;;;;;1.00;1.00;;;;;9.43;82.14;99791.00;5061336;28;47399;-50
2021/12/01 06:31:36;;;;;;;;;1.00;1.00;;;;;9.45;82.19;99786.38;5079679;28;45481;-49
2021/12/01 06:34:02;;;;;;;;;1.00;1.00;;;;;9.50;81.94;99783.25;5079582;28;45431;-50
2021/12/01 06:36:28;;;;;;;;;1.33;0.67;;;;;9.52;81.60;99769.78;5061394;28;45402;-48
2021/12/01 06:38:53;;;;;;;;;0.33;0.33;;;;;9.52;81.61;99765.31;5079224;28;46430;-49
2021/12/01 06:41:19;;;;;;;;;0.33;0.33;;;;;9.52;81.85;99752.03;5079176;28;45482;-50
2021/12/01 06:43:47;;;;;;;;;2.00;0.00;;;;;9.54;83.14;99768.66;5078979;28;45373;-52
2021/12/01 06:46:12;;;;;;;;;0.00;0.00;;;;;9.51;82.46;99753.03;5079652;28;45252;-51
2021/12/01 06:48:38;;;;;;;;;1.67;0.67;;;;;9.56;81.95;99748.06;5079054;28;45503;-50
2021/12/01 06:51:03;;;;;;;;;3.00;1.00;;;;;9.53;82.55;99740.44;5079226;28;45215;-52
2021/12/01 06:53:30;;;;;;;;;0.67;0.67;;;;;9.55;82.92;99737.63;5079368;28;45225;-48
2021/12/01 06:55:55;;;;;;;;;1.33;1.00;;;;;9.62;82.29;99752.72;5079756;28;45348;-53
2021/12/01 06:58:21;;;;;;;;;5.67;1.67;;;;;9.63;81.80;99746.41;5078950;28;45388;-53
2021/12/01 07:00:46;;;;;;;;;0.00;0.00;;;;;9.65;82.15;99740.94;5079003;28;45333;-51
2021/12/01 07:03:12;;;;;;;;;1.00;1.00;;;;;9.66;81.89;99729.34;5079202;28;45427;-54
2021/12/01 07:05:37;;;;;;;;;1.00;1.00;;;;;9.70;82.65;99738.63;5079873;28;45270;-51
2021/12/01 07:08:04;;;;;;;;;0.00;0.00;;;;;9.71;82.12;99741.09;5060549;28;46641;-51
2021/12/01 07:10:29;;;;;;;;;0.00;0.00;;;;;9.75;81.61;99733.66;5078945;28;45439;-53
2021/12/01 07:12:54;;;;;;;;;1.00;0.00;;;;;9.77;82.38;99733.47;5078626;28;45359;-50
2021/12/01 07:15:20;;;;;;;;;2.00;0.67;;;;;9.81;82.68;99737.44;5079218;28;45410;-53
2021/12/01 07:17:45;;;;;;;;;1.00;0.00;;;;;9.83;82.81;99733.66;5078636;28;45417;-51
2021/12/01 07:20:11;;;;;;;;;0.00;0.00;;;;;9.86;81.50;99724.50;5078561;28;45369;-51
2021/12/01 07:22:37;;;;;;;;;1.00;1.00;;;;;9.89;82.96;99735.63;5078828;28;45340;-52
2021/12/01 07:25:03;;;;;;;;;0.00;0.00;;;;;9.82;82.35;99717.84;5078869;28;45349;-50
2021/12/01 07:27:29;;;;;;;;;1.00;0.00;;;;;9.95;82.62;99728.84;5078817;28;47641;-53
2021/12/01 07:29:54;;;;;;;;;1.00;1.00;;;;;9.96;82.79;99720.69;5078529;28;45331;-53
2021/12/01 07:32:20;;;;;;;;;0.00;0.00;;;;;9.99;82.66;99733.63;5078971;28;45817;-53
2021/12/01 07:34:45;;;;;;;;;0.00;0.00;;;;;10.02;82.56;99732.47;5078983;28;45403;-52
2021/12/01 07:37:17;;;;;;;;;0.00;0.00;;;;;10.02;82.30;99724.47;5078671;28;46322;-49
2021/12/01 07:39:44;;;;;;;;;0.00;0.00;;;;;10.05;82.44;99726.81;5078532;28;45286;-51
2021/12/01 07:42:10;;;;;;;;;0.00;0.00;;;;;10.09;81.78;99727.31;5078489;28;45589;-52
2021/12/01 07:44:36;;;;;;;;;2.00;0.00;;;;;10.12;81.88;99727.81;5057025;28;45503;-55
2021/12/01 07:47:02;;;;;;;;;0.00;0.00;;;;;10.17;81.66;99733.44;5057806;28;45399;-49
2021/12/01 07:49:28;;;;;;;;;2.00;0.00;;;;;10.20;81.86;99738.44;5056291;28;45458;-51
2021/12/01 07:51:53;;;;;;;;;0.00;0.00;;;;;10.19;81.96;99728.78;5057664;28;45490;-51
2021/12/01 07:54:19;;;;;;;;;0.00;0.00;;;;;10.20;81.74;99722.47;5057927;28;45437;-51
2021/12/01 07:56:45;;;;;;;;;1.00;1.00;;;;;10.28;81.72;99724.34;5057416;28;46322;-52
2021/12/01 07:59:14;;;;;;;;;0.00;0.00;;;;;10.31;81.35;99720.47;5056913;28;45317;-51
2021/12/01 08:01:40;;;;;;;;;0.00;0.00;;;;;10.34;81.51;99730.78;5056051;28;45455;-50
2021/12/01 08:04:05;;;;;;;;;0.00;0.00;;;;;10.37;81.42;99706.53;5057346;28;45436;-51
2021/12/01 08:06:32;;;;;;;;;0.00;0.00;;;;;10.42;81.08;99712.97;5057514;28;46069;-52
2021/12/01 08:09:00;;;;;;;;;0.00;0.00;;;;;10.46;81.41;99716.13;5057328;28;45516;-52
2021/12/01 08:11:26;;;;;;;;;0.00;0.00;;;;;10.50;80.72;99712.13;5056855;28;45248;-54
2021/12/01 08:13:52;;;;;;;;;0.00;0.00;;;;;10.54;80.40;99699.31;5057204;28;45309;-56
2021/12/01 08:16:17;;;;;;;;;0.33;0.00;;;;;10.58;80.85;99696.16;5056582;28;47175;-52
2021/12/01 08:18:43;;;;;;;;;0.33;0.00;;;;;10.63;80.58;99701.78;5057180;28;45513;-53
2021/12/01 08:21:08;;;;;;;;;0.00;0.00;;;;;10.64;80.67;99700.75;5055419;28;45258;-51
2021/12/01 08:23:34;;;;;;;;;0.00;0.00;;;;;10.52;80.45;99683.53;5055986;28;45444;-58
2021/12/01 08:25:59;;;;;;;;;0.00;0.00;;;;;10.64;80.53;99699.94;5056299;28;46028;-57
2021/12/01 08:28:24;;;;;;;;;0.00;0.00;;;;;10.63;80.23;99685.81;5056584;28;45510;-56
2021/12/01 08:30:50;;;;;;;;;0.00;0.00;;;;;10.67;80.06;99681.00;5056302;28;45419;-58
2021/12/01 08:33:15;;;;;;;;;0.00;0.00;;;;;10.68;79.94;99683.47;5057319;28;45276;-58
2021/12/01 08:35:41;;;;;;;;;0.00;0.00;;;;;10.72;80.22;99692.75;5056113;28;46002;-56
2021/12/01 08:38:06;;;;;;;;;1.00;1.00;;;;;10.82;79.89;99673.09;5055193;28;45450;-53
2021/12/01 08:40:32;;;;;;;;;0.00;0.00;;;;;10.93;79.11;99678.03;5056385;28;45364;-55
2021/12/01 08:42:57;;;;;;;;;0.00;0.00;;;;;10.97;78.81;99680.16;5063325;28;45452;-55
2021/12/01 08:45:23;;;;;;;;;0.00;0.00;;;;;11.07;78.81;99679.09;5076948;28;45984;-56
2021/12/01 08:47:48;;;;;;;;;0.00;0.00;;;;;11.18;78.47;99687.50;5077124;28;45428;-53
2021/12/01 08:50:14;;;;;;;;;0.00;0.00;;;;;11.31;77.61;99670.97;5077047;28;45431;-52
2021/12/01 08:52:40;;;;;;;;;0.00;0.00;;;;;11.38;77.70;99679.91;5076365;28;45391;-58
2021/12/01 08:55:06;;;;;;;;;0.00;0.00;;;;;11.43;77.41;99687.34;5077145;28;46092;-56
2021/12/01 08:57:32;;;;;;;;;0.00;0.00;;;;;11.38;77.16;99673.75;5076603;28;45714;-58
2021/12/01 08:59:57;;;;;;;;;0.00;0.00;;;;;11.48;76.84;99684.97;5077222;28;45298;-55
2021/12/01 09:02:23;;;;;;;;;0.00;0.00;;;;;11.68;76.17;99680.81;5077369;28;45155;-55
2021/12/01 09:04:50;;;;;;;;;0.00;0.00;;;;;11.88;75.95;99673.19;5076960;28;46302;-56
2021/12/01 09:07:19;;;;;;;;;1.67;0.00;;;;;12.23;74.98;99668.16;5077162;28;45315;-51
2021/12/01 09:09:46;;;;;;;;;0.00;0.00;;;;;12.57;72.94;99656.09;5077194;28;45478;-54
2021/12/01 09:12:14;;;;;;;;;0.00;0.00;;;;;13.37;72.37;99668.50;5077346;28;45623;-54
2021/12/01 09:14:40;;;;;;;;;0.00;0.00;;;;;14.01;69.06;99672.94;5077803;28;46945;-59
2021/12/01 09:17:06;;;;;;;;;0.00;0.00;;;;;13.84;69.68;99662.53;5077841;28;45506;-55
2021/12/01 09:19:31;;;;;;;;;0.00;0.00;;;;;14.00;68.81;99671.28;5078248;28;45273;-56
2021/12/01 09:21:56;;;;;;;;;0.00;0.00;;;;;14.75;66.02;99669.66;5078057;28;45473;-54
2021/12/01 09:24:22;;;;;;;;;0.00;0.00;;;;;15.64;62.54;99662.25;5081073;28;45762;-59
2021/12/01 09:26:48;;;;;;;;;0.67;0.00;;;;;15.00;62.99;99668.13;5080743;28;45400;-62
2021/12/01 09:29:14;;;;;;;;;0.00;0.00;;;;;14.38;65.42;99669.06;5080417;28;45291;-56
2021/12/01 09:31:39;;;;;;;;;1.00;0.00;;;;;13.86;65.30;99656.97;5080832;28;45369;-57
2021/12/01 09:34:05;;;;;;;;;0.00;0.00;;;;;13.19;66.62;99616.34;5080633;28;45309;-55
2021/12/01 09:36:31;;;;;;;;;0.00;0.00;;;;;13.14;67.07;99664.13;5079243;28;45348;-57
2021/12/01 09:38:57;;;;;;;;;1.33;0.00;;;;;12.92;67.84;99671.28;5080403;28;45419;-66
2021/12/01 09:41:24;;;;;;;;;0.00;0.00;;;;;12.78;67.56;99666.81;5080552;28;45322;-58
2021/12/01 09:43:49;;;;;;;;;1.67;0.00;;;;;12.79;68.12;99672.97;5079825;28;47093;-53
2021/12/01 09:46:15;;;;;;;;;2.00;0.00;;;;;12.88;67.72;99670.00;5079873;28;45850;-62
2021/12/01 09:48:42;;;;;;;;;0.00;0.00;;;;;13.00;67.23;99659.66;5080398;28;45352;-59
2021/12/01 09:51:09;;;;;;;;;0.00;0.00;;;;;13.10;67.32;99678.88;5080684;28;45447;-66
2021/12/01 09:53:35;;;;;;;;;0.00;0.00;;;;;13.02;65.97;99683.50;5079836;28;47766;-67
2021/12/01 09:56:01;;;;;;;;;0.00;0.00;;;;;12.98;66.47;99686.56;5080077;28;45343;-56
2021/12/01 09:58:32;;;;;;;;;0.33;0.33;;;;;12.93;66.71;99690.78;5079993;28;45295;-64
2021/12/01 10:01:06;;;;;;;;;0.00;0.00;;;;;12.81;67.23;99695.81;5079843;28;45513;-60
2021/12/01 10:03:32;;;;;;;;;1.00;0.00;;;;;12.61;66.99;99666.19;5078213;28;45395;-59
2021/12/01 10:06:02;;;;;;;;;0.00;0.00;;;;;12.65;67.35;99688.81;5080183;28;45682;-58
2021/12/01 10:08:34;;;;;;;;;0.00;0.00;;;;;12.62;67.25;99689.19;5079682;28;45246;-57
2021/12/01 10:11:06;;;;;;;;;3.33;0.00;;;;;12.54;68.00;99701.81;5079716;28;45327;-71
2021/12/01 10:13:34;;;;;;;;;0.67;0.00;;;;;12.37;68.28;99696.66;5079681;28;45383;-59
2021/12/01 10:16:02;;;;;;;;;0.00;0.00;;;;;12.16;68.45;99708.03;5079369;28;45335;-59
2021/12/01 10:18:29;;;;;;;;;0.00;0.00;;;;;11.96;68.36;99693.56;5079468;28;45705;-57
2021/12/01 10:21:11;;;;;;;;;0.00;0.00;;;;;11.78;68.74;99703.72;5080019;28;45238;-64
2021/12/01 10:23:40;;;;;;;;;0.00;0.00;;;;;11.68;68.95;99695.97;5079187;28;45358;-67
2021/12/01 10:26:12;;;;;;;;;1.00;0.00;;;;;11.61;68.88;99700.34;5079404;28;45405;-63
2021/12/01 10:28:47;;;;;;;;;0.00;0.00;;;;;11.55;69.31;99693.09;5061358;28;45277;-64
2021/12/01 10:31:13;;;;;;;;;0.00;0.00;;;;;11.53;69.50;99682.59;5079666;28;45400;-65
2021/12/01 10:33:40;;;;;;;;;0.00;0.00;;;;;11.54;69.08;99705.56;5078643;28;46257;-70
2021/12/01 10:36:08;;;;;;;;;0.00;0.00;;;;;11.47;69.11;99709.97;5079317;28;45475;-58
2021/12/01 10:38:38;;;;;;;;;3.00;0.00;;;;;11.36;70.65;99710.34;5079715;28;45408;-57
2021/12/01 10:41:11;;;;;;;;;0.67;0.00;;;;;11.16;71.29;99694.00;5080277;28;45435;-62
2021/12/01 10:43:42;;;;;;;;;0.00;0.00;;;;;11.12;71.49;99712.16;5079319;28;45374;-57
2021/12/01 10:46:11;;;;;;;;;0.00;0.00;;;;;10.99;71.47;99691.44;5079536;28;45488;-56
2021/12/01 10:48:37;;;;;;;;;1.00;0.33;;;;;10.97;71.91;99708.59;5078902;28;45508;-62
2021/12/01 10:51:03;;;;;;;;;1.00;1.00;;;;;11.02;72.03;99690.28;5079147;28;45397;-60
2021/12/01 10:53:29;;;;;;;;;3.00;2.00;;;;;11.13;71.69;99705.03;5078742;28;45351;-64
2021/12/01 10:56:00;;;;;;;;;1.33;0.00;;;;;11.18;71.45;99700.81;5078805;28;45274;-58
2021/12/01 10:58:40;;;;;;;;;0.00;0.00;;;;;11.20;71.55;99696.13;5079232;28;45254;-56
2021/12/01 11:01:19;;;;;;;;;3.00;1.00;;;;;11.27;71.26;99693.63;5078798;28;45487;-62
2021/12/01 11:03:45;;;;;;;;;0.00;0.00;;;;;11.60;70.92;99694.19;5078211;28;46145;-58
2021/12/01 11:06:20;;;;;;;;;1.67;1.67;;;;;13.19;67.79;99690.28;5076010;28;45408;-55
2021/12/01 11:08:56;;;;;;;;;7.67;2.00;;;;;13.84;65.53;99678.56;5078130;28;45769;-56
2021/12/01 11:11:24;;;;;;;;;0.67;0.00;;;;;14.14;64.77;99676.50;5078413;28;45285;-56
2021/12/01 11:13:49;;;;;;;;;6.33;2.00;;;;;14.48;63.90;99686.41;5078380;28;45434;-57
2021/12/01 11:16:18;;;;;;;;;1.00;1.00;;;;;14.47;62.84;99670.53;5060326;28;45348;-56
2021/12/01 11:18:51;;;;;;;;;1.00;1.00;;;;;14.10;63.69;99679.78;5077873;28;45321;-67
2021/12/01 11:21:18;;;;;;;;;3.00;1.00;;;;;13.78;63.79;99667.81;5078087;28;45331;-56
2021/12/01 11:23:49;;;;;;;;;2.00;1.00;;;;;13.46;64.69;99662.00;5060304;28;46247;-60
2021/12/01 11:26:19;;;;;;;;;3.00;3.00;;;;;13.29;64.72;99677.47;5078298;28;45389;-55
2021/12/01 11:28:56;;;;;;;;;1.00;1.00;;;;;13.22;65.45;99668.50;5077751;28;45514;-58
2021/12/01 11:31:22;;;;;;;;;0.67;0.67;;;;;13.36;64.50;99681.03;5077784;28;45453;-57
2021/12/01 11:33:55;;;;;;;;;2.00;2.00;;;;;13.98;64.07;99666.13;5077868;28;45530;-54
2021/12/01 11:36:25;;;;;;;;;2.67;1.00;;;;;14.78;61.54;99678.09;5077625;28;45395;-54